sensor_id;sensor_type;location;lat;lon;timestamp;pressure;altitude;pressure_sealevel;temperature;humidity
70200;BME280;57587;55.688;37.600;2023-04-21T00:00:06;99610.56;;;10.80;26.75
70200;BME280;57587;55.688;37.600;2023-04-21T00:02:37;99600.25;;;10.77;27.35
70200;BME280;57587;55.688;37.600;2023-04-21T00:05:08;99599.97;;;10.72;27.56
70200;BME280;57587;55.688;37.600;2023-04-21T00:07:40;99601.19;;;10.70;26.73
70200;BME280;57587;55.688;37.600;2023-04-21T00:10:08;99600.53;;;10.68;27.25
70200;BME280;57587;55.688;37.600;2023-04-21T00:12:36;99604.22;;;10.67;27.20
70200;BME280;57587;55.688;37.600;2023-04-21T00:15:04;99601.91;;;10.64;27.80
70200;BME280;57587;55.688;37.600;2023-04-21T00:17:32;99597.94;;;10.59;27.40
70200;BME280;57587;55.688;37.600;2023-04-21T00:19:59;99593.59;;;10.58;27.50
70200;BME280;57587;55.688;37.600;2023-04-21T00:22:26;99600.34;;;10.54;27.90
70200;BME280;57587;55.688;37.600;2023-04-21T00:24:53;99598.69;;;10.53;26.90
70200;BME280;57587;55.688;37.600;2023-04-21T00:27:20;99599.03;;;10.50;26.92
70200;BME280;57587;55.688;37.600;2023-04-21T00:29:47;99590.56;;;10.47;27.22
70200;BME280;57587;55.688;37.600;2023-04-21T00:32:16;99595.91;;;10.47;27.04
70200;BME280;57587;55.688;37.600;2023-04-21T00:34:43;99594.06;;;10.47;27.30
70200;BME280;57587;55.688;37.600;2023-04-21T00:37:10;99593.59;;;10.44;26.42
70200;BME280;57587;55.688;37.600;2023-04-21T00:39:38;99588.63;;;10.41;26.87
70200;BME280;57587;55.688;37.600;2023-04-21T00:42:05;99587.97;;;10.38;27.08
70200;BME280;57587;55.688;37.600;2023-04-21T00:44:34;99584.81;;;10.35;26.92
70200;BME280;57587;55.688;37.600;2023-04-21T00:47:02;99582.50;;;10.32;27.06
70200;BME280;57587;55.688;37.600;2023-04-21T00:49:30;99584.53;;;10.30;27.41
70200;BME280;57587;55.688;37.600;2023-04-21T00:51:57;99577.19;;;10.24;27.63
70200;BME280;57587;55.688;37.600;2023-04-21T00:54:24;99573.69;;;10.23;28.66
70200;BME280;57587;55.688;37.600;2023-04-21T00:56:54;99569.19;;;10.24;28.72
70200;BME280;57587;55.688;37.600;2023-04-21T00:59:21;99567.16;;;10.26;29.03
70200;BME280;57587;55.688;37.600;2023-04-21T01:01:49;99573.50;;;10.25;28.91
70200;BME280;57587;55.688;37.600;2023-04-21T01:04:16;99575.53;;;10.23;28.78
70200;BME280;57587;55.688;37.600;2023-04-21T01:06:43;99564.19;;;10.21;29.65
70200;BME280;57587;55.688;37.600;2023-04-21T01:09:11;99571.38;;;10.20;29.72
70200;BME280;57587;55.688;37.600;2023-04-21T01:11:38;99567.22;;;10.18;29.48
70200;BME280;57587;55.688;37.600;2023-04-21T01:14:06;99570.63;;;10.11;29.11
70200;BME280;57587;55.688;37.600;2023-04-21T01:16:34;99568.66;;;10.05;29.36
70200;BME280;57587;55.688;37.600;2023-04-21T01:19:01;99564.69;;;10.01;29.59
70200;BME280;57587;55.688;37.600;2023-04-21T01:21:38;99561.38;;;9.99;29.87
70200;BME280;57587;55.688;37.600;2023-04-21T01:24:08;99564.41;;;9.96;28.98
70200;BME280;57587;55.688;37.600;2023-04-21T01:26:37;99557.56;;;9.93;29.87
70200;BME280;57587;55.688;37.600;2023-04-21T01:29:05;99555.56;;;9.96;30.61
70200;BME280;57587;55.688;37.600;2023-04-21T01:31:32;99565.44;;;9.95;29.78
70200;BME280;57587;55.688;37.600;2023-04-21T01:34:03;99559.16;;;9.88;28.98
70200;BME280;57587;55.688;37.600;2023-04-21T01:36:30;99561.50;;;9.83;29.96
70200;BME280;57587;55.688;37.600;2023-04-21T01:38:57;99561.88;;;9.80;29.89
70200;BME280;57587;55.688;37.600;2023-04-21T01:41:25;99552.91;;;9.73;29.47
70200;BME280;57587;55.688;37.600;2023-04-21T01:43:53;99553.09;;;9.71;30.23
70200;BME280;57587;55.688;37.600;2023-04-21T01:46:23;99553.28;;;9.69;30.13
70200;BME280;57587;55.688;37.600;2023-04-21T01:48:50;99548.66;;;9.63;29.78
70200;BME280;57587;55.688;37.600;2023-04-21T01:51:18;99554.81;;;9.64;29.75
70200;BME280;57587;55.688;37.600;2023-04-21T01:53:45;99556.34;;;9.58;30.38
70200;BME280;57587;55.688;37.600;2023-04-21T01:56:13;99558.19;;;9.58;30.35
70200;BME280;57587;55.688;37.600;2023-04-21T01:58:41;99550.69;;;9.53;30.19
70200;BME280;57587;55.688;37.600;2023-04-21T02:01:08;99549.41;;;9.49;30.13
70200;BME280;57587;55.688;37.600;2023-04-21T02:03:35;99550.06;;;9.51;30.53
70200;BME280;57587;55.688;37.600;2023-04-21T02:06:03;99543.03;;;9.50;30.29
70200;BME280;57587;55.688;37.600;2023-04-21T02:08:30;99550.53;;;9.55;31.00
70200;BME280;57587;55.688;37.600;2023-04-21T02:11:00;99554.88;;;9.56;29.86
70200;BME280;57587;55.688;37.600;2023-04-21T02:13:27;99557.06;;;9.52;30.22
70200;BME280;57587;55.688;37.600;2023-04-21T02:15:54;99558.25;;;9.50;30.45
70200;BME280;57587;55.688;37.600;2023-04-21T02:18:38;99557.56;;;9.47;29.91
70200;BME280;57587;55.688;37.600;2023-04-21T02:21:05;99555.44;;;9.43;30.14
70200;BME280;57587;55.688;37.600;2023-04-21T02:23:33;99553.78;;;9.42;30.60
70200;BME280;57587;55.688;37.600;2023-04-21T02:26:00;99563.47;;;9.43;30.92
70200;BME280;57587;55.688;37.600;2023-04-21T02:28:27;99565.94;;;9.44;30.42
70200;BME280;57587;55.688;37.600;2023-04-21T02:30:54;99558.25;;;9.50;30.99
70200;BME280;57587;55.688;37.600;2023-04-21T02:33:22;99554.19;;;9.54;30.57
70200;BME280;57587;55.688;37.600;2023-04-21T02:35:49;99551.72;;;9.52;30.45
70200;BME280;57587;55.688;37.600;2023-04-21T02:38:16;99560.03;;;9.57;30.18
70200;BME280;57587;55.688;37.600;2023-04-21T02:40:43;99549.53;;;9.56;30.07
70200;BME280;57587;55.688;37.600;2023-04-21T02:43:13;99550.19;;;9.58;30.20
70200;BME280;57587;55.688;37.600;2023-04-21T02:45:40;99553.31;;;9.61;30.30
70200;BME280;57587;55.688;37.600;2023-04-21T02:48:07;99554.81;;;9.64;29.95
70200;BME280;57587;55.688;37.600;2023-04-21T02:50:35;99550.31;;;9.64;30.63
70200;BME280;57587;55.688;37.600;2023-04-21T02:53:02;99554.47;;;9.67;30.95
70200;BME280;57587;55.688;37.600;2023-04-21T02:55:29;99552.91;;;9.73;30.95
70200;BME280;57587;55.688;37.600;2023-04-21T02:57:56;99557.91;;;9.76;31.34
70200;BME280;57587;55.688;37.600;2023-04-21T03:00:24;99554.69;;;9.80;30.23
70200;BME280;57587;55.688;37.600;2023-04-21T03:02:52;99553.31;;;9.84;29.85
70200;BME280;57587;55.688;37.600;2023-04-21T03:05:19;99547.44;;;9.89;29.91
70200;BME280;57587;55.688;37.600;2023-04-21T03:07:46;99555.56;;;9.96;30.23
70200;BME280;57587;55.688;37.600;2023-04-21T03:10:14;99552.16;;;10.02;30.12
70200;BME280;57587;55.688;37.600;2023-04-21T03:12:41;99548.56;;;10.09;29.77
70200;BME280;57587;55.688;37.600;2023-04-21T03:15:08;99561.50;;;10.21;28.98
70200;BME280;57587;55.688;37.600;2023-04-21T03:17:35;99566.47;;;10.32;28.42
70200;BME280;57587;55.688;37.600;2023-04-21T03:20:03;99564.53;;;10.55;28.29
70200;BME280;57587;55.688;37.600;2023-04-21T03:22:39;99569.25;;;10.83;28.17
70200;BME280;57587;55.688;37.600;2023-04-21T03:25:06;99569.03;;;11.14;27.40
70200;BME280;57587;55.688;37.600;2023-04-21T03:27:33;99573.22;;;11.38;27.30
70200;BME280;57587;55.688;37.600;2023-04-21T03:30:03;99566.56;;;11.92;26.60
70200;BME280;57587;55.688;37.600;2023-04-21T03:32:30;99567.91;;;12.59;25.71
70200;BME280;57587;55.688;37.600;2023-04-21T03:34:57;99568.34;;;13.45;24.16
70200;BME280;57587;55.688;37.600;2023-04-21T03:37:24;99560.13;;;14.33;23.56
70200;BME280;57587;55.688;37.600;2023-04-21T03:39:51;99572.19;;;15.15;21.92
70200;BME280;57587;55.688;37.600;2023-04-21T03:42:19;99570.72;;;15.96;21.00
70200;BME280;57587;55.688;37.600;2023-04-21T03:44:47;99559.28;;;16.69;20.35
70200;BME280;57587;55.688;37.600;2023-04-21T03:47:15;99567.00;;;17.39;19.87
70200;BME280;57587;55.688;37.600;2023-04-21T03:49:43;99564.66;;;18.03;18.83
70200;BME280;57587;55.688;37.600;2023-04-21T03:52:10;99569.19;;;18.80;18.20
70200;BME280;57587;55.688;37.600;2023-04-21T03:54:37;99570.22;;;19.43;17.44
70200;BME280;57587;55.688;37.600;2023-04-21T03:57:04;99563.22;;;20.04;16.83
70200;BME280;57587;55.688;37.600;2023-04-21T03:59:31;99562.41;;;20.54;16.10
70200;BME280;57587;55.688;37.600;2023-04-21T04:01:58;99563.47;;;20.92;15.70
70200;BME280;57587;55.688;37.600;2023-04-21T04:04:26;99561.94;;;21.45;15.42
70200;BME280;57587;55.688;37.600;2023-04-21T04:06:53;99563.38;;;22.07;15.28
70200;BME280;57587;55.688;37.600;2023-04-21T04:09:20;99567.97;;;22.71;14.85
70200;BME280;57587;55.688;37.600;2023-04-21T04:11:47;99552.97;;;23.26;14.58
70200;BME280;57587;55.688;37.600;2023-04-21T04:14:15;99558.25;;;23.68;13.70
70200;BME280;57587;55.688;37.600;2023-04-21T04:16:42;99553.69;;;24.05;13.71
70200;BME280;57587;55.688;37.600;2023-04-21T04:19:09;99555.31;;;24.57;13.24
70200;BME280;57587;55.688;37.600;2023-04-21T04:21:36;99549.72;;;24.93;13.30
70200;BME280;57587;55.688;37.600;2023-04-21T04:24:04;99547.06;;;25.47;12.76
70200;BME280;57587;55.688;37.600;2023-04-21T04:26:31;99551.78;;;25.76;12.29
70200;BME280;57587;55.688;37.600;2023-04-21T04:29:00;99549.03;;;26.20;12.01
70200;BME280;57587;55.688;37.600;2023-04-21T04:31:28;99557.44;;;26.63;11.35
70200;BME280;57587;55.688;37.600;2023-04-21T04:33:56;99549.38;;;26.96;11.08
70200;BME280;57587;55.688;37.600;2023-04-21T04:36:23;99551.91;;;27.17;11.30
70200;BME280;57587;55.688;37.600;2023-04-21T04:38:50;99549.03;;;27.65;11.17
70200;BME280;57587;55.688;37.600;2023-04-21T04:41:17;99552.16;;;27.96;10.95
70200;BME280;57587;55.688;37.600;2023-04-21T04:43:46;99556.66;;;28.24;10.93
70200;BME280;57587;55.688;37.600;2023-04-21T04:46:14;99550.84;;;28.59;10.71
70200;BME280;57587;55.688;37.600;2023-04-21T04:48:41;99544.63;;;28.94;9.98
70200;BME280;57587;55.688;37.600;2023-04-21T04:51:08;99549.16;;;29.18;9.67
70200;BME280;57587;55.688;37.600;2023-04-21T04:53:35;99548.69;;;29.38;10.32
70200;BME280;57587;55.688;37.600;2023-04-21T04:56:02;99541.41;;;29.70;9.43
70200;BME280;57587;55.688;37.600;2023-04-21T04:58:29;99543.91;;;30.03;9.62
70200;BME280;57587;55.688;37.600;2023-04-21T05:00:56;99548.06;;;30.37;9.48
70200;BME280;57587;55.688;37.600;2023-04-21T05:03:23;99544.97;;;30.69;9.19
70200;BME280;57587;55.688;37.600;2023-04-21T05:05:50;99547.09;;;30.72;9.53
70200;BME280;57587;55.688;37.600;2023-04-21T05:08:18;99544.69;;;31.19;9.24
70200;BME280;57587;55.688;37.600;2023-04-21T05:10:45;99550.59;;;31.53;9.02
70200;BME280;57587;55.688;37.600;2023-04-21T05:13:12;99549.63;;;31.83;8.49
70200;BME280;57587;55.688;37.600;2023-04-21T05:15:39;99538.91;;;32.08;8.29
70200;BME280;57587;55.688;37.600;2023-04-21T05:18:06;99545.69;;;32.45;8.14
70200;BME280;57587;55.688;37.600;2023-04-21T05:20:33;99530.56;;;32.34;8.17
70200;BME280;57587;55.688;37.600;2023-04-21T05:23:00;99531.50;;;32.55;7.61
70200;BME280;57587;55.688;37.600;2023-04-21T05:25:28;99527.19;;;32.67;7.94
70200;BME280;57587;55.688;37.600;2023-04-21T05:27:55;99526.63;;;32.82;7.43
70200;BME280;57587;55.688;37.600;2023-04-21T05:30:22;99511.41;;;33.05;7.49
70200;BME280;57587;55.688;37.600;2023-04-21T05:32:49;99518.91;;;33.56;7.38
70200;BME280;57587;55.688;37.600;2023-04-21T05:35:16;99525.34;;;34.02;7.26
70200;BME280;57587;55.688;37.600;2023-04-21T05:37:43;99521.25;;;34.20;7.48
70200;BME280;57587;55.688;37.600;2023-04-21T05:40:10;99531.41;;;34.16;7.41
70200;BME280;57587;55.688;37.600;2023-04-21T05:42:37;99532.81;;;34.55;7.22
70200;BME280;57587;55.688;37.600;2023-04-21T05:45:05;99526.69;;;34.86;6.76
70200;BME280;57587;55.688;37.600;2023-04-21T05:47:32;99523.22;;;35.02;6.62
70200;BME280;57587;55.688;37.600;2023-04-21T05:49:59;99526.34;;;35.00;6.74
70200;BME280;57587;55.688;37.600;2023-04-21T05:52:26;99524.38;;;34.88;6.84
70200;BME280;57587;55.688;37.600;2023-04-21T05:54:53;99524.00;;;35.27;6.69
70200;BME280;57587;55.688;37.600;2023-04-21T05:57:20;99516.03;;;35.25;6.46
70200;BME280;57587;55.688;37.600;2023-04-21T05:59:47;99515.50;;;35.48;6.54
70200;BME280;57587;55.688;37.600;2023-04-21T06:02:14;99513.53;;;35.61;6.51
70200;BME280;57587;55.688;37.600;2023-04-21T06:04:42;99509.19;;;35.75;6.42
70200;BME280;57587;55.688;37.600;2023-04-21T06:07:10;99512.31;;;36.02;6.20
70200;BME280;57587;55.688;37.600;2023-04-21T06:09:39;99504.69;;;35.99;5.99
70200;BME280;57587;55.688;37.600;2023-04-21T06:12:07;99509.31;;;36.23;5.63
70200;BME280;57587;55.688;37.600;2023-04-21T06:14:34;99505.94;;;35.73;5.97
70200;BME280;57587;55.688;37.600;2023-04-21T06:17:01;99504.28;;;35.56;6.31
70200;BME280;57587;55.688;37.600;2023-04-21T06:19:28;99506.19;;;35.96;6.64
70200;BME280;57587;55.688;37.600;2023-04-21T06:21:55;99509.31;;;36.23;6.04
70200;BME280;57587;55.688;37.600;2023-04-21T06:24:23;99518.34;;;36.04;5.66
70200;BME280;57587;55.688;37.600;2023-04-21T06:26:51;99515.69;;;35.95;6.25
70200;BME280;57587;55.688;37.600;2023-04-21T06:29:19;99514.09;;;36.38;5.79
70200;BME280;57587;55.688;37.600;2023-04-21T06:31:46;99510.69;;;36.45;5.62
70200;BME280;57587;55.688;37.600;2023-04-21T06:34:14;99515.47;;;36.60;5.69
70200;BME280;57587;55.688;37.600;2023-04-21T06:36:41;99507.56;;;36.62;6.08
70200;BME280;57587;55.688;37.600;2023-04-21T06:39:09;99513.13;;;36.46;5.50
70200;BME280;57587;55.688;37.600;2023-04-21T06:41:36;99504.13;;;36.37;5.76
70200;BME280;57587;55.688;37.600;2023-04-21T06:44:03;99498.31;;;36.42;6.04
70200;BME280;57587;55.688;37.600;2023-04-21T06:46:30;99502.22;;;36.25;5.69
70200;BME280;57587;55.688;37.600;2023-04-21T06:48:57;99503.19;;;36.61;5.87
70200;BME280;57587;55.688;37.600;2023-04-21T06:51:24;99494.69;;;36.26;6.00
70200;BME280;57587;55.688;37.600;2023-04-21T06:53:51;99494.63;;;36.54;5.93
70200;BME280;57587;55.688;37.600;2023-04-21T06:56:18;99495.50;;;37.06;5.46
70200;BME280;57587;55.688;37.600;2023-04-21T06:58:45;99494.91;;;37.16;5.42
70200;BME280;57587;55.688;37.600;2023-04-21T07:01:12;99489.13;;;37.79;5.19
70200;BME280;57587;55.688;37.600;2023-04-21T07:03:39;99487.13;;;37.99;5.04
70200;BME280;57587;55.688;37.600;2023-04-21T07:06:07;99479.31;;;38.09;5.16
70200;BME280;57587;55.688;37.600;2023-04-21T07:08:34;99489.66;;;38.50;5.35
70200;BME280;57587;55.688;37.600;2023-04-21T07:11:01;99486.31;;;38.41;4.84
70200;BME280;57587;55.688;37.600;2023-04-21T07:13:28;99479.34;;;38.55;4.85
70200;BME280;57587;55.688;37.600;2023-04-21T07:15:55;99483.53;;;38.22;5.22
70200;BME280;57587;55.688;37.600;2023-04-21T07:18:23;99478.72;;;38.19;4.86
70200;BME280;57587;55.688;37.600;2023-04-21T07:20:50;99472.25;;;38.38;4.93
70200;BME280;57587;55.688;37.600;2023-04-21T07:23:17;99472.75;;;38.43;4.99
70200;BME280;57587;55.688;37.600;2023-04-21T07:25:44;99473.31;;;38.52;5.08
70200;BME280;57587;55.688;37.600;2023-04-21T07:28:12;99470.75;;;38.67;4.80
70200;BME280;57587;55.688;37.600;2023-04-21T07:30:41;99469.00;;;38.59;5.01
70200;BME280;57587;55.688;37.600;2023-04-21T07:33:09;99464.38;;;38.43;4.78
70200;BME280;57587;55.688;37.600;2023-04-21T07:35:37;99466.22;;;38.59;4.77
70200;BME280;57587;55.688;37.600;2023-04-21T07:38:04;99455.84;;;38.36;4.70
70200;BME280;57587;55.688;37.600;2023-04-21T07:40:31;99464.38;;;38.20;4.55
70200;BME280;57587;55.688;37.600;2023-04-21T07:42:58;99447.50;;;37.94;4.93
70200;BME280;57587;55.688;37.600;2023-04-21T07:45:25;99449.53;;;38.62;5.32
70200;BME280;57587;55.688;37.600;2023-04-21T07:47:52;99448.72;;;38.88;4.88
70200;BME280;57587;55.688;37.600;2023-04-21T07:50:20;99451.41;;;39.08;4.77
70200;BME280;57587;55.688;37.600;2023-04-21T07:52:47;99446.78;;;38.66;4.80
70200;BME280;57587;55.688;37.600;2023-04-21T07:55:14;99443.69;;;38.74;4.84
70200;BME280;57587;55.688;37.600;2023-04-21T07:57:41;99439.25;;;38.70;4.84
70200;BME280;57587;55.688;37.600;2023-04-21T08:00:09;99434.63;;;39.08;4.79
70200;BME280;57587;55.688;37.600;2023-04-21T08:02:40;99434.47;;;39.27;5.03
70200;BME280;57587;55.688;37.600;2023-04-21T08:05:07;99430.94;;;39.30;5.00
70200;BME280;57587;55.688;37.600;2023-04-21T08:07:35;99425.16;;;39.46;4.78
70200;BME280;57587;55.688;37.600;2023-04-21T08:10:02;99417.69;;;39.61;4.72
70200;BME280;57587;55.688;37.600;2023-04-21T08:12:30;99414.31;;;39.45;4.37
70200;BME280;57587;55.688;37.600;2023-04-21T08:14:57;99418.78;;;39.19;4.30
70200;BME280;57587;55.688;37.600;2023-04-21T08:17:24;99417.78;;;39.04;4.64
70200;BME280;57587;55.688;37.600;2023-04-21T08:19:51;99419.22;;;39.21;4.70
70200;BME280;57587;55.688;37.600;2023-04-21T08:22:18;99421.03;;;39.06;5.05
70200;BME280;57587;55.688;37.600;2023-04-21T08:24:46;99415.34;;;39.29;4.93
70200;BME280;57587;55.688;37.600;2023-04-21T08:27:13;99414.38;;;39.18;4.63
70200;BME280;57587;55.688;37.600;2023-04-21T08:29:40;99415.53;;;38.60;4.76
70200;BME280;57587;55.688;37.600;2023-04-21T08:32:07;99429.41;;;38.80;4.89
70200;BME280;57587;55.688;37.600;2023-04-21T08:34:34;99408.50;;;38.70;4.71
70200;BME280;57587;55.688;37.600;2023-04-21T08:37:01;99412.38;;;38.88;4.75
70200;BME280;57587;55.688;37.600;2023-04-21T08:39:29;99407.63;;;38.92;4.88
70200;BME280;57587;55.688;37.600;2023-04-21T08:41:57;99402.41;;;38.87;4.69
70200;BME280;57587;55.688;37.600;2023-04-21T08:44:25;99397.41;;;38.77;5.14
70200;BME280;57587;55.688;37.600;2023-04-21T08:46:54;99397.16;;;38.86;4.91
70200;BME280;57587;55.688;37.600;2023-04-21T08:49:23;99393.97;;;38.61;5.03
70200;BME280;57587;55.688;37.600;2023-04-21T08:51:50;99385.81;;;38.48;5.35
70200;BME280;57587;55.688;37.600;2023-04-21T08:54:17;99388.88;;;38.40;5.21
70200;BME280;57587;55.688;37.600;2023-04-21T08:56:47;99385.53;;;38.08;5.38
70200;BME280;57587;55.688;37.600;2023-04-21T08:59:15;99384.16;;;38.21;5.24
70200;BME280;57587;55.688;37.600;2023-04-21T09:02:11;99383.38;;;37.78;5.38
70200;BME280;57587;55.688;37.600;2023-04-21T09:04:46;99376.19;;;36.80;5.92
70200;BME280;57587;55.688;37.600;2023-04-21T09:07:32;99374.81;;;36.38;6.37
70200;BME280;57587;55.688;37.600;2023-04-21T09:10:00;99375.22;;;35.77;6.45
70200;BME280;57587;55.688;37.600;2023-04-21T09:12:30;99362.94;;;34.94;6.62
70200;BME280;57587;55.688;37.600;2023-04-21T09:14:58;99357.69;;;34.15;6.91
70200;BME280;57587;55.688;37.600;2023-04-21T09:17:30;99352.41;;;32.89;7.50
70200;BME280;57587;55.688;37.600;2023-04-21T09:20:12;99360.31;;;32.49;8.12
70200;BME280;57587;55.688;37.600;2023-04-21T09:22:40;99350.28;;;31.97;8.84
70200;BME280;57587;55.688;37.600;2023-04-21T09:25:07;99345.50;;;31.59;8.46
70200;BME280;57587;55.688;37.600;2023-04-21T09:27:36;99352.19;;;31.15;9.12
70200;BME280;57587;55.688;37.600;2023-04-21T09:30:04;99341.31;;;30.92;9.75
70200;BME280;57587;55.688;37.600;2023-04-21T09:32:37;99336.56;;;30.67;9.99
70200;BME280;57587;55.688;37.600;2023-04-21T09:35:08;99321.75;;;29.97;10.59
70200;BME280;57587;55.688;37.600;2023-04-21T09:37:37;99323.22;;;29.40;10.90
70200;BME280;57587;55.688;37.600;2023-04-21T09:40:05;99317.31;;;28.88;11.07
70200;BME280;57587;55.688;37.600;2023-04-21T09:42:32;99325.25;;;28.54;10.94
70200;BME280;57587;55.688;37.600;2023-04-21T09:45:05;99326.41;;;27.97;11.04
70200;BME280;57587;55.688;37.600;2023-04-21T09:47:40;99322.13;;;27.45;10.96
70200;BME280;57587;55.688;37.600;2023-04-21T09:50:10;99317.97;;;26.58;12.18
70200;BME280;57587;55.688;37.600;2023-04-21T09:52:39;99304.22;;;26.15;12.71
70200;BME280;57587;55.688;37.600;2023-04-21T09:55:17;99314.63;;;25.94;12.80
70200;BME280;57587;55.688;37.600;2023-04-21T09:57:46;99322.34;;;25.58;12.80
70200;BME280;57587;55.688;37.600;2023-04-21T10:00:17;99312.66;;;25.41;14.09
70200;BME280;57587;55.688;37.600;2023-04-21T10:02:47;99314.03;;;25.39;13.92
70200;BME280;57587;55.688;37.600;2023-04-21T10:05:16;99303.91;;;25.39;13.75
70200;BME280;57587;55.688;37.600;2023-04-21T10:07:44;99299.00;;;25.02;13.81
70200;BME280;57587;55.688;37.600;2023-04-21T10:10:27;99292.13;;;25.04;14.57
70200;BME280;57587;55.688;37.600;2023-04-21T10:12:58;99291.16;;;24.90;14.31
70200;BME280;57587;55.688;37.600;2023-04-21T10:15:39;99292.31;;;24.84;14.99
70200;BME280;57587;55.688;37.600;2023-04-21T10:18:18;99285.25;;;24.73;15.00
70200;BME280;57587;55.688;37.600;2023-04-21T10:20:56;99281.16;;;24.70;15.71
70200;BME280;57587;55.688;37.600;2023-04-21T10:23:49;99284.53;;;24.57;14.71
70200;BME280;57587;55.688;37.600;2023-04-21T10:26:24;99273.69;;;24.42;15.16
70200;BME280;57587;55.688;37.600;2023-04-21T10:31:27;99272.31;;;23.69;14.92
70200;BME280;57587;55.688;37.600;2023-04-21T10:37:17;99270.72;;;23.47;16.26
70200;BME280;57587;55.688;37.600;2023-04-21T10:42:17;99261.19;;;23.24;15.90
70200;BME280;57587;55.688;37.600;2023-04-21T10:47:43;99250.53;;;23.28;17.16
70200;BME280;57587;55.688;37.600;2023-04-21T10:53:06;99253.28;;;23.13;15.29
70200;BME280;57587;55.688;37.600;2023-04-21T10:55:34;99246.44;;;22.85;15.49
70200;BME280;57587;55.688;37.600;2023-04-21T10:58:03;99259.22;;;22.48;15.62
70200;BME280;57587;55.688;37.600;2023-04-21T11:00:31;99257.22;;;22.18;15.93
70200;BME280;57587;55.688;37.600;2023-04-21T11:03:00;99255.84;;;21.58;16.16
70200;BME280;57587;55.688;37.600;2023-04-21T11:05:36;99253.91;;;21.16;16.75
70200;BME280;57587;55.688;37.600;2023-04-21T11:08:13;99244.19;;;20.93;16.75
70200;BME280;57587;55.688;37.600;2023-04-21T11:11:07;99240.81;;;20.76;17.49
70200;BME280;57587;55.688;37.600;2023-04-21T11:13:34;99244.00;;;20.67;18.29
70200;BME280;57587;55.688;37.600;2023-04-21T11:16:04;99237.78;;;20.72;18.07
70200;BME280;57587;55.688;37.600;2023-04-21T11:18:42;99235.91;;;20.78;18.47
70200;BME280;57587;55.688;37.600;2023-04-21T11:21:17;99227.94;;;20.66;18.00
70200;BME280;57587;55.688;37.600;2023-04-21T11:23:49;99231.44;;;20.61;18.47
70200;BME280;57587;55.688;37.600;2023-04-21T11:26:16;99224.00;;;20.52;18.70
70200;BME280;57587;55.688;37.600;2023-04-21T11:28:46;99216.66;;;20.52;19.11
70200;BME280;57587;55.688;37.600;2023-04-21T11:31:15;99226.00;;;20.61;19.27
70200;BME280;57587;55.688;37.600;2023-04-21T11:33:42;99229.28;;;20.63;19.18
70200;BME280;57587;55.688;37.600;2023-04-21T11:36:09;99223.03;;;20.63;18.82
70200;BME280;57587;55.688;37.600;2023-04-21T11:38:40;99211.38;;;20.67;19.45
70200;BME280;57587;55.688;37.600;2023-04-21T11:41:07;99210.28;;;20.68;19.61
70200;BME280;57587;55.688;37.600;2023-04-21T11:43:38;99204.38;;;20.77;19.14
70200;BME280;57587;55.688;37.600;2023-04-21T11:48:39;99193.06;;;20.58;18.60
70200;BME280;57587;55.688;37.600;2023-04-21T11:51:13;99193.25;;;20.51;18.67
70200;BME280;57587;55.688;37.600;2023-04-21T11:53:41;99194.72;;;20.32;18.46
70200;BME280;57587;55.688;37.600;2023-04-21T11:56:08;99194.66;;;20.26;18.94
70200;BME280;57587;55.688;37.600;2023-04-21T11:58:38;99181.31;;;20.25;19.03
70200;BME280;57587;55.688;37.600;2023-04-21T12:01:08;99185.06;;;20.19;18.70
70200;BME280;57587;55.688;37.600;2023-04-21T12:03:35;99189.69;;;20.18;19.05
70200;BME280;57587;55.688;37.600;2023-04-21T12:06:03;99183.44;;;20.18;19.27
70200;BME280;57587;55.688;37.600;2023-04-21T12:08:30;99186.59;;;20.10;19.22
70200;BME280;57587;55.688;37.600;2023-04-21T12:10:58;99187.50;;;19.93;19.46
70200;BME280;57587;55.688;37.600;2023-04-21T12:13:28;99181.16;;;19.83;19.89
70200;BME280;57587;55.688;37.600;2023-04-21T12:15:57;99181.91;;;19.78;19.83
70200;BME280;57587;55.688;37.600;2023-04-21T12:18:26;99174.72;;;19.67;19.54
70200;BME280;57587;55.688;37.600;2023-04-21T12:20:53;99171.44;;;19.65;19.99
70200;BME280;57587;55.688;37.600;2023-04-21T12:23:21;99181.00;;;19.72;19.64
70200;BME280;57587;55.688;37.600;2023-04-21T12:25:48;99178.94;;;19.57;19.41
70200;BME280;57587;55.688;37.600;2023-04-21T12:28:17;99176.38;;;19.51;19.42
70200;BME280;57587;55.688;37.600;2023-04-21T12:30:44;99170.25;;;19.39;19.44
70200;BME280;57587;55.688;37.600;2023-04-21T12:33:11;99169.69;;;19.37;19.85
70200;BME280;57587;55.688;37.600;2023-04-21T12:35:39;99173.22;;;19.37;20.18
70200;BME280;57587;55.688;37.600;2023-04-21T12:38:06;99161.88;;;19.40;20.32
70200;BME280;57587;55.688;37.600;2023-04-21T12:40:34;99160.44;;;19.32;19.21
70200;BME280;57587;55.688;37.600;2023-04-21T12:43:01;99168.19;;;19.07;19.22
70200;BME280;57587;55.688;37.600;2023-04-21T12:45:28;99158.84;;;18.98;19.49
70200;BME280;57587;55.688;37.600;2023-04-21T12:47:57;99161.13;;;18.89;19.65
70200;BME280;57587;55.688;37.600;2023-04-21T12:50:25;99161.56;;;18.81;19.34
70200;BME280;57587;55.688;37.600;2023-04-21T12:52:52;99161.03;;;18.67;19.82
70200;BME280;57587;55.688;37.600;2023-04-21T12:55:21;99159.25;;;18.56;20.41
70200;BME280;57587;55.688;37.600;2023-04-21T12:57:48;99155.03;;;18.48;19.65
70200;BME280;57587;55.688;37.600;2023-04-21T13:00:16;99150.28;;;18.38;19.62
70200;BME280;57587;55.688;37.600;2023-04-21T13:02:43;99148.81;;;18.31;20.02
70200;BME280;57587;55.688;37.600;2023-04-21T13:05:11;99151.31;;;18.20;20.57
70200;BME280;57587;55.688;37.600;2023-04-21T13:07:39;99138.28;;;18.17;20.99
70200;BME280;57587;55.688;37.600;2023-04-21T13:10:07;99134.31;;;18.08;21.28
70200;BME280;57587;55.688;37.600;2023-04-21T13:12:34;99133.81;;;18.11;21.14
70200;BME280;57587;55.688;37.600;2023-04-21T13:15:02;99123.84;;;18.12;20.82
70200;BME280;57587;55.688;37.600;2023-04-21T13:17:31;99117.47;;;18.18;20.77